BAW185 EGLL-KEWR
Flight info
| Callsign | BAW185 |
|---|---|
| Flight time | N/A |
| Altitude | 36000 |
| Route | CPT L9 BUCGO DCT FELCA DCT OFSOX DCT BANBA DCT LIMRI/M082F360 NATF TUDEP/N0471F380 N520C TUSKY Q475 COPLY DCT BOS DCT NELIE FLOSI4 |
| Aircraft | B772/H-SDE2E3FGHIJ5LORVWXY/LB1D1 |
Departure
| Time | 2026-05-05 13:29 |
|---|---|
| Airport | London Heathrow Airport (EGLL) |
Arrival
| Time | N/A |
|---|---|
| Airport | Newark Liberty International Airport (KEWR) |
| Time | Latitude | Longitude | Altitude | Speed | Heading |
|---|---|---|---|---|---|
| 2026-05-05 12:43 | 51.46915 | -0.48231 | 90 ft | 0 kts | 89° |
| 2026-05-05 13:18 | 51.46915 | -0.48258 | 90 ft | 3 kts | 89° |
| 2026-05-05 13:18 | 51.46915 | -0.48291 | 90 ft | 3 kts | 89° |
| 2026-05-05 13:19 | 51.46915 | -0.48319 | 90 ft | 3 kts | 102° |
| 2026-05-05 13:19 | 51.46923 | -0.48346 | 93 ft | 3 kts | 145° |
| 2026-05-05 13:19 | 51.46939 | -0.48355 | 91 ft | 3 kts | 179° |
| 2026-05-05 13:19 | 51.46960 | -0.48355 | 93 ft | 3 kts | 179° |
| 2026-05-05 13:20 | 51.46967 | -0.48355 | 91 ft | 0 kts | 179° |
| 2026-05-05 13:22 | 51.46966 | -0.48355 | 91 ft | 1 kts | 179° |
| 2026-05-05 13:22 | 51.46928 | -0.48355 | 94 ft | 7 kts | 179° |
| 2026-05-05 13:23 | 51.46880 | -0.48354 | 90 ft | 7 kts | 179° |
| 2026-05-05 13:23 | 51.46832 | -0.48354 | 90 ft | 7 kts | 179° |
| 2026-05-05 13:23 | 51.46783 | -0.48353 | 90 ft | 7 kts | 179° |
| 2026-05-05 13:23 | 51.46743 | -0.48388 | 93 ft | 7 kts | 240° |
| 2026-05-05 13:24 | 51.46741 | -0.48464 | 92 ft | 7 kts | 272° |
| 2026-05-05 13:24 | 51.46743 | -0.48542 | 90 ft | 7 kts | 270° |
| 2026-05-05 13:24 | 51.46743 | -0.48620 | 90 ft | 8 kts | 269° |
| 2026-05-05 13:24 | 51.46735 | -0.48718 | 91 ft | 9 kts | 244° |
| 2026-05-05 13:25 | 51.46678 | -0.48748 | 93 ft | 9 kts | 177° |
| 2026-05-05 13:25 | 51.46629 | -0.48754 | 91 ft | 3 kts | 191° |
| 2026-05-05 13:25 | 51.46617 | -0.48758 | 93 ft | 0 kts | 192° |
| 2026-05-05 13:26 | 51.46587 | -0.48769 | 93 ft | 6 kts | 193° |
| 2026-05-05 13:26 | 51.46549 | -0.48780 | 94 ft | 6 kts | 187° |
| 2026-05-05 13:27 | 51.46511 | -0.48772 | 93 ft | 6 kts | 161° |
| 2026-05-05 13:27 | 51.46483 | -0.48731 | 92 ft | 6 kts | 119° |
| 2026-05-05 13:27 | 51.46477 | -0.48670 | 93 ft | 6 kts | 89° |
| 2026-05-05 13:27 | 51.46477 | -0.48656 | 93 ft | 0 kts | 89° |
| 2026-05-05 13:28 | 51.46477 | -0.48654 | 93 ft | 2 kts | 89° |
| 2026-05-05 13:28 | 51.46479 | -0.48411 | 91 ft | 52 kts | 90° |
| 2026-05-05 13:28 | 51.46481 | -0.47430 | 90 ft | 123 kts | 89° |
| 2026-05-05 13:29 | 51.46485 | -0.45730 | 99 ft | 179 kts | 88° |
| 2026-05-05 13:29 | 51.46491 | -0.43697 | 770 ft | 184 kts | 85° |
| 2026-05-05 13:29 | 51.46503 | -0.41645 | 1642 ft | 183 kts | 95° |
| 2026-05-05 13:29 | 51.46101 | -0.39707 | 2370 ft | 189 kts | 119° |
| 2026-05-05 13:30 | 51.45192 | -0.38145 | 2904 ft | 196 kts | 144° |
| 2026-05-05 13:30 | 51.43924 | -0.37265 | 3449 ft | 207 kts | 166° |
| 2026-05-05 13:30 | 51.42417 | -0.37213 | 3634 ft | 229 kts | 191° |
| 2026-05-05 13:30 | 51.40914 | -0.38300 | 3825 ft | 250 kts | 220° |
| 2026-05-05 13:31 | 51.39832 | -0.40597 | 4100 ft | 262 kts | 252° |
| 2026-05-05 13:31 | 51.39650 | -0.43493 | 4553 ft | 266 kts | 282° |
| 2026-05-05 13:31 | 51.40085 | -0.46401 | 4990 ft | 271 kts | 287° |
| 2026-05-05 13:31 | 51.40539 | -0.49342 | 5628 ft | 274 kts | 285° |
| 2026-05-05 13:32 | 51.40963 | -0.52318 | 6314 ft | 275 kts | 283° |
| 2026-05-05 13:32 | 51.41362 | -0.55320 | 6918 ft | 276 kts | 282° |
| 2026-05-05 13:32 | 51.41744 | -0.58349 | 7589 ft | 278 kts | 282° |
| 2026-05-05 13:32 | 51.42118 | -0.61407 | 8246 ft | 281 kts | 282° |
| 2026-05-05 13:33 | 51.42482 | -0.64495 | 9003 ft | 283 kts | 281° |
| 2026-05-05 13:33 | 51.42850 | -0.67620 | 9624 ft | 288 kts | 281° |
| 2026-05-05 13:33 | 51.43220 | -0.70775 | 10162 ft | 290 kts | 281° |
| 2026-05-05 13:33 | 51.43599 | -0.74046 | 10332 ft | 308 kts | 281° |
| 2026-05-05 13:34 | 51.44010 | -0.77503 | 10471 ft | 325 kts | 282° |
| 2026-05-05 13:34 | 51.44459 | -0.81165 | 10644 ft | 343 kts | 282° |
| 2026-05-05 13:34 | 51.44926 | -0.84977 | 11031 ft | 354 kts | 282° |
| 2026-05-05 13:34 | 51.45401 | -0.88894 | 11567 ft | 361 kts | 282° |
| 2026-05-05 13:35 | 51.45864 | -0.92883 | 12266 ft | 365 kts | 281° |
| 2026-05-05 13:35 | 51.46320 | -0.96892 | 12997 ft | 368 kts | 281° |
| 2026-05-05 13:35 | 51.46782 | -1.00960 | 13721 ft | 372 kts | 281° |
| 2026-05-05 13:35 | 51.47099 | -1.03727 | 14170 ft | 374 kts | 281° |
| 2026-05-05 13:36 | 51.47574 | -1.07846 | 14813 ft | 378 kts | 281° |
| 2026-05-05 13:36 | 51.48056 | -1.12010 | 15444 ft | 381 kts | 281° |
| 2026-05-05 13:36 | 51.48538 | -1.16200 | 16095 ft | 383 kts | 281° |
| 2026-05-05 13:36 | 51.49108 | -1.20361 | 16602 ft | 383 kts | 290° |
| 2026-05-05 13:37 | 51.50455 | -1.24046 | 16982 ft | 389 kts | 313° |
| 2026-05-05 13:37 | 51.52437 | -1.26991 | 17452 ft | 390 kts | 319° |
| 2026-05-05 13:37 | 51.54461 | -1.29929 | 17942 ft | 395 kts | 317° |
| 2026-05-05 13:37 | 51.56477 | -1.32951 | 18519 ft | 397 kts | 316° |
| 2026-05-05 13:38 | 51.58486 | -1.35998 | 19040 ft | 399 kts | 315° |
| 2026-05-05 13:38 | 51.60353 | -1.39313 | 19528 ft | 400 kts | 307° |
| 2026-05-05 13:38 | 51.61964 | -1.42964 | 20032 ft | 401 kts | 300° |
| 2026-05-05 13:38 | 51.63311 | -1.46904 | 20553 ft | 402 kts | 295° |
| 2026-05-05 13:39 | 51.64597 | -1.50909 | 21006 ft | 405 kts | 296° |
| 2026-05-05 13:39 | 51.65912 | -1.54946 | 21437 ft | 409 kts | 296° |
| 2026-05-05 13:39 | 51.67246 | -1.59004 | 21930 ft | 410 kts | 296° |
| 2026-05-05 13:39 | 51.68579 | -1.63070 | 22460 ft | 411 kts | 295° |